Terminal Aerodrome Forecast
Issued by NWS Greer, SC

Home | Current Version | Previous Version | Text Only | Print | Product List | Glossary On
Versions: 1 2 3 4 5 6 7 8 9 10 11 12 13 14 15 16 17 18 19 20 21 22 23 24 25
000
FTUS42 KGSP 271728
TAFCLT
TAF
KCLT 271728Z 2718/2818 25007KT P6SM FEW050 SCT250
     FM280300 23003KT P6SM BKN070 PROB30 2803/2807 4SM -TSRA
      OVC040CB
     FM281700 22007KT P6SM BKN140=

USA.gov is the U.S. government's official web portal to all federal, state and local government web resources and services.